sensor_id;sensor_type;location;lat;lon;timestamp;pressure;altitude;pressure_sealevel;temperature;humidity
12203;BME280;6164;42.178;24.622;2022-09-09T00:01:49;99827.88;;;17.61;93.99
12203;BME280;6164;42.178;24.622;2022-09-09T00:04:20;99822.13;;;17.64;93.51
12203;BME280;6164;42.178;24.622;2022-09-09T00:06:55;99821.09;;;17.58;93.62
12203;BME280;6164;42.178;24.622;2022-09-09T00:09:30;99825.03;;;17.49;93.84
12203;BME280;6164;42.178;24.622;2022-09-09T00:11:58;99826.63;;;17.44;94.00
12203;BME280;6164;42.178;24.622;2022-09-09T00:14:31;99815.97;;;17.37;93.88
12203;BME280;6164;42.178;24.622;2022-09-09T00:17:01;99818.00;;;17.35;93.60
12203;BME280;6164;42.178;24.622;2022-09-09T00:19:31;99820.06;;;17.27;93.09
12203;BME280;6164;42.178;24.622;2022-09-09T00:22:04;99820.25;;;17.12;94.24
12203;BME280;6164;42.178;24.622;2022-09-09T00:24:38;99835.63;;;17.03;94.96
12203;BME280;6164;42.178;24.622;2022-09-09T00:27:06;99840.75;;;16.98;95.66
12203;BME280;6164;42.178;24.622;2022-09-09T00:29:40;99834.63;;;16.91;95.71
12203;BME280;6164;42.178;24.622;2022-09-09T00:32:11;99845.66;;;16.82;95.75
12203;BME280;6164;42.178;24.622;2022-09-09T00:34:46;99836.03;;;16.81;95.57
12203;BME280;6164;42.178;24.622;2022-09-09T00:37:13;99834.41;;;16.86;95.45
12203;BME280;6164;42.178;24.622;2022-09-09T00:39:44;99835.03;;;16.88;96.20
12203;BME280;6164;42.178;24.622;2022-09-09T00:42:13;99837.06;;;16.86;97.11
12203;BME280;6164;42.178;24.622;2022-09-09T00:44:44;99838.47;;;16.82;97.97
12203;BME280;6164;42.178;24.622;2022-09-09T00:47:18;99832.16;;;16.83;98.42
12203;BME280;6164;42.178;24.622;2022-09-09T00:49:57;99842.19;;;16.81;98.27
12203;BME280;6164;42.178;24.622;2022-09-09T00:52:30;99833.34;;;16.81;98.64
12203;BME280;6164;42.178;24.622;2022-09-09T00:55:02;99839.31;;;16.89;98.90
12203;BME280;6164;42.178;24.622;2022-09-09T00:57:31;99847.97;;;16.98;99.84
12203;BME280;6164;42.178;24.622;2022-09-09T01:00:16;99842.00;;;17.02;99.51
12203;BME280;6164;42.178;24.622;2022-09-09T01:02:45;99845.72;;;17.08;98.47
12203;BME280;6164;42.178;24.622;2022-09-09T01:05:18;99846.31;;;17.10;98.18
12203;BME280;6164;42.178;24.622;2022-09-09T01:07:48;99841.38;;;17.07;97.98
12203;BME280;6164;42.178;24.622;2022-09-09T01:10:23;99835.25;;;17.06;97.26
12203;BME280;6164;42.178;24.622;2022-09-09T01:12:52;99845.72;;;17.08;98.19
12203;BME280;6164;42.178;24.622;2022-09-09T01:15:21;99832.81;;;17.12;98.56
12203;BME280;6164;42.178;24.622;2022-09-09T01:17:51;99836.88;;;17.07;98.18
12203;BME280;6164;42.178;24.622;2022-09-09T01:20:23;99836.25;;;17.05;97.85
12203;BME280;6164;42.178;24.622;2022-09-09T01:23:04;99834.84;;;17.03;97.87
12203;BME280;6164;42.178;24.622;2022-09-09T01:28:21;99840.75;;;17.05;98.47
12203;BME280;6164;42.178;24.622;2022-09-09T01:30:48;99836.06;;;17.07;97.84
12203;BME280;6164;42.178;24.622;2022-09-09T01:33:16;99840.97;;;17.10;98.52
12203;BME280;6164;42.178;24.622;2022-09-09T01:35:45;99837.72;;;17.08;98.12
12203;BME280;6164;42.178;24.622;2022-09-09T01:38:13;99834.44;;;17.06;97.91
12203;BME280;6164;42.178;24.622;2022-09-09T01:40:40;99824.38;;;17.01;97.42
12203;BME280;6164;42.178;24.622;2022-09-09T01:43:07;99830.72;;;17.00;97.59
12203;BME280;6164;42.178;24.622;2022-09-09T01:45:35;99834.41;;;16.99;97.66
12203;BME280;6164;42.178;24.622;2022-09-09T01:48:02;99829.50;;;16.96;98.00
12203;BME280;6164;42.178;24.622;2022-09-09T01:50:28;99834.22;;;16.94;98.46
12203;BME280;6164;42.178;24.622;2022-09-09T01:52:57;99838.91;;;16.92;99.49
12203;BME280;6164;42.178;24.622;2022-09-09T01:55:28;99840.16;;;16.90;99.50
12203;BME280;6164;42.178;24.622;2022-09-09T01:57:56;99837.84;;;16.80;100.00
12203;BME280;6164;42.178;24.622;2022-09-09T02:00:25;99838.47;;;16.82;100.00
12203;BME280;6164;42.178;24.622;2022-09-09T02:02:56;99838.06;;;16.85;100.00
12203;BME280;6164;42.178;24.622;2022-09-09T02:05:28;99845.88;;;16.87;100.00
12203;BME280;6164;42.178;24.622;2022-09-09T02:07:58;99843.41;;;16.85;100.00
12203;BME280;6164;42.178;24.622;2022-09-09T02:10:30;99836.22;;;16.79;100.00
12203;BME280;6164;42.178;24.622;2022-09-09T02:13:00;99830.47;;;16.76;100.00
12203;BME280;6164;42.178;24.622;2022-09-09T02:15:30;99827.81;;;16.76;100.00
12203;BME280;6164;42.178;24.622;2022-09-09T02:17:59;99836.63;;;16.76;100.00
12203;BME280;6164;42.178;24.622;2022-09-09T02:20:30;99838.28;;;16.77;100.00
12203;BME280;6164;42.178;24.622;2022-09-09T02:22:58;99832.94;;;16.77;100.00
12203;BME280;6164;42.178;24.622;2022-09-09T02:25:25;99831.94;;;16.78;100.00
12203;BME280;6164;42.178;24.622;2022-09-09T02:27:53;99836.84;;;16.81;100.00
12203;BME280;6164;42.178;24.622;2022-09-09T02:30:20;99835.81;;;16.82;100.00
12203;BME280;6164;42.178;24.622;2022-09-09T02:32:46;99838.69;;;16.81;100.00
12203;BME280;6164;42.178;24.622;2022-09-09T02:35:17;99841.56;;;16.79;100.00
12203;BME280;6164;42.178;24.622;2022-09-09T02:37:46;99838.28;;;16.77;100.00
12203;BME280;6164;42.178;24.622;2022-09-09T02:40:13;99846.88;;;16.73;100.00
12203;BME280;6164;42.178;24.622;2022-09-09T02:42:40;99841.91;;;16.57;100.00
12203;BME280;6164;42.178;24.622;2022-09-09T02:45:08;99847.38;;;16.42;100.00
12203;BME280;6164;42.178;24.622;2022-09-09T02:47:36;99842.81;;;16.30;100.00
12203;BME280;6164;42.178;24.622;2022-09-09T02:50:09;99835.41;;;16.25;100.00
12203;BME280;6164;42.178;24.622;2022-09-09T02:52:42;99833.16;;;16.22;100.00
12203;BME280;6164;42.178;24.622;2022-09-09T02:55:14;99844.63;;;16.29;100.00
12203;BME280;6164;42.178;24.622;2022-09-09T02:57:42;99853.00;;;16.20;100.00
12203;BME280;6164;42.178;24.622;2022-09-09T03:00:13;99847.09;;;16.24;100.00
12203;BME280;6164;42.178;24.622;2022-09-09T03:02:40;99842.38;;;16.26;100.00
12203;BME280;6164;42.178;24.622;2022-09-09T03:05:07;99852.22;;;16.26;100.00
12203;BME280;6164;42.178;24.622;2022-09-09T03:07:34;99848.94;;;16.24;100.00
12203;BME280;6164;42.178;24.622;2022-09-09T03:10:02;99844.81;;;16.21;100.00
12203;BME280;6164;42.178;24.622;2022-09-09T03:12:28;99843.38;;;16.19;100.00
12203;BME280;6164;42.178;24.622;2022-09-09T03:14:55;99853.19;;;16.18;100.00
12203;BME280;6164;42.178;24.622;2022-09-09T03:17:21;99854.88;;;16.19;100.00
12203;BME280;6164;42.178;24.622;2022-09-09T03:19:48;99863.22;;;16.16;100.00
12203;BME280;6164;42.178;24.622;2022-09-09T03:22:15;99871.22;;;16.16;100.00
12203;BME280;6164;42.178;24.622;2022-09-09T03:24:42;99868.16;;;16.13;100.00
12203;BME280;6164;42.178;24.622;2022-09-09T03:27:09;99863.63;;;16.13;100.00
12203;BME280;6164;42.178;24.622;2022-09-09T03:29:36;99873.63;;;16.05;100.00
12203;BME280;6164;42.178;24.622;2022-09-09T03:32:02;99873.00;;;16.03;100.00
12203;BME280;6164;42.178;24.622;2022-09-09T03:34:29;99881.19;;;16.01;100.00
12203;BME280;6164;42.178;24.622;2022-09-09T03:36:55;99890.56;;;15.97;100.00
12203;BME280;6164;42.178;24.622;2022-09-09T03:39:22;99886.03;;;15.91;100.00
12203;BME280;6164;42.178;24.622;2022-09-09T03:41:48;99879.69;;;15.92;100.00
12203;BME280;6164;42.178;24.622;2022-09-09T03:44:16;99878.25;;;15.90;100.00
12203;BME280;6164;42.178;24.622;2022-09-09T03:46:43;99873.09;;;15.88;100.00
12203;BME280;6164;42.178;24.622;2022-09-09T03:49:09;99874.31;;;15.86;100.00
12203;BME280;6164;42.178;24.622;2022-09-09T03:51:36;99880.25;;;15.81;100.00
12203;BME280;6164;42.178;24.622;2022-09-09T03:54:03;99877.97;;;15.78;100.00
12203;BME280;6164;42.178;24.622;2022-09-09T03:56:30;99870.16;;;15.76;100.00
12203;BME280;6164;42.178;24.622;2022-09-09T03:58:56;99875.88;;;15.73;100.00
12203;BME280;6164;42.178;24.622;2022-09-09T04:01:24;99872.78;;;15.70;100.00
12203;BME280;6164;42.178;24.622;2022-09-09T04:03:51;99874.41;;;15.64;100.00
12203;BME280;6164;42.178;24.622;2022-09-09T04:06:17;99876.03;;;15.65;100.00
12203;BME280;6164;42.178;24.622;2022-09-09T04:08:46;99873.56;;;15.64;100.00
12203;BME280;6164;42.178;24.622;2022-09-09T04:11:13;99865.78;;;15.62;100.00
12203;BME280;6164;42.178;24.622;2022-09-09T04:13:40;99873.75;;;15.62;100.00
12203;BME280;6164;42.178;24.622;2022-09-09T04:16:08;99866.81;;;15.61;100.00
12203;BME280;6164;42.178;24.622;2022-09-09T04:18:36;99869.06;;;15.64;100.00
12203;BME280;6164;42.178;24.622;2022-09-09T04:21:03;99865.38;;;15.65;100.00
12203;BME280;6164;42.178;24.622;2022-09-09T04:23:31;99861.09;;;15.64;100.00
12203;BME280;6164;42.178;24.622;2022-09-09T04:25:59;99865.81;;;15.69;100.00
12203;BME280;6164;42.178;24.622;2022-09-09T04:28:27;99863.16;;;15.69;100.00
12203;BME280;6164;42.178;24.622;2022-09-09T04:30:54;99880.59;;;15.71;100.00
12203;BME280;6164;42.178;24.622;2022-09-09T04:33:23;99877.09;;;15.71;100.00
12203;BME280;6164;42.178;24.622;2022-09-09T04:35:52;99876.28;;;15.70;100.00
12203;BME280;6164;42.178;24.622;2022-09-09T04:38:19;99881.38;;;15.72;100.00
12203;BME280;6164;42.178;24.622;2022-09-09T04:40:48;99880.75;;;15.70;100.00
12203;BME280;6164;42.178;24.622;2022-09-09T04:43:16;99890.16;;;15.66;100.00
12203;BME280;6164;42.178;24.622;2022-09-09T04:45:46;99896.97;;;15.47;100.00
12203;BME280;6164;42.178;24.622;2022-09-09T04:48:13;99903.72;;;15.43;100.00
12203;BME280;6164;42.178;24.622;2022-09-09T04:50:39;99918.00;;;15.42;100.00
12203;BME280;6164;42.178;24.622;2022-09-09T04:53:07;99917.28;;;15.34;100.00
12203;BME280;6164;42.178;24.622;2022-09-09T04:55:34;99918.31;;;15.33;100.00
12203;BME280;6164;42.178;24.622;2022-09-09T04:58:02;99918.50;;;15.31;100.00
12203;BME280;6164;42.178;24.622;2022-09-09T05:00:29;99911.94;;;15.34;100.00
12203;BME280;6164;42.178;24.622;2022-09-09T05:02:55;99907.75;;;15.39;100.00
12203;BME280;6164;42.178;24.622;2022-09-09T05:05:22;99911.94;;;15.48;100.00
12203;BME280;6164;42.178;24.622;2022-09-09T05:07:48;99906.78;;;15.47;100.00
12203;BME280;6164;42.178;24.622;2022-09-09T05:10:16;99910.56;;;15.59;100.00
12203;BME280;6164;42.178;24.622;2022-09-09T05:12:43;99908.84;;;15.72;100.00
12203;BME280;6164;42.178;24.622;2022-09-09T05:15:17;99903.63;;;15.86;100.00
12203;BME280;6164;42.178;24.622;2022-09-09T05:17:45;99899.97;;;15.93;100.00
12203;BME280;6164;42.178;24.622;2022-09-09T05:20:12;99897.56;;;16.05;100.00
12203;BME280;6164;42.178;24.622;2022-09-09T05:22:39;99893.13;;;16.12;100.00
12203;BME280;6164;42.178;24.622;2022-09-09T05:25:05;99898.72;;;16.23;100.00
12203;BME280;6164;42.178;24.622;2022-09-09T05:27:34;99907.81;;;16.35;100.00
12203;BME280;6164;42.178;24.622;2022-09-09T05:30:01;99910.09;;;16.45;100.00
12203;BME280;6164;42.178;24.622;2022-09-09T05:32:29;99908.94;;;16.47;100.00
12203;BME280;6164;42.178;24.622;2022-09-09T05:34:57;99902.56;;;16.48;100.00
12203;BME280;6164;42.178;24.622;2022-09-09T05:37:24;99894.41;;;16.56;100.00
12203;BME280;6164;42.178;24.622;2022-09-09T05:39:50;99896.69;;;16.66;100.00
12203;BME280;6164;42.178;24.622;2022-09-09T05:42:18;99892.19;;;16.73;100.00
12203;BME280;6164;42.178;24.622;2022-09-09T05:44:46;99883.59;;;16.77;100.00
12203;BME280;6164;42.178;24.622;2022-09-09T05:47:12;99885.28;;;16.91;100.00
12203;BME280;6164;42.178;24.622;2022-09-09T05:49:40;99882.66;;;17.04;100.00
12203;BME280;6164;42.178;24.622;2022-09-09T05:52:06;99887.59;;;17.14;100.00
12203;BME280;6164;42.178;24.622;2022-09-09T05:54:34;99892.28;;;17.19;100.00
12203;BME280;6164;42.178;24.622;2022-09-09T05:57:01;99888.00;;;17.31;100.00
12203;BME280;6164;42.178;24.622;2022-09-09T05:59:28;99879.19;;;17.43;100.00
12203;BME280;6164;42.178;24.622;2022-09-09T06:01:57;99877.16;;;17.52;99.77
12203;BME280;6164;42.178;24.622;2022-09-09T06:04:24;99857.25;;;17.67;99.88
12203;BME280;6164;42.178;24.622;2022-09-09T06:06:50;99858.22;;;17.79;98.86
12203;BME280;6164;42.178;24.622;2022-09-09T06:09:17;99867.88;;;17.93;97.27
12203;BME280;6164;42.178;24.622;2022-09-09T06:11:43;99853.88;;;17.98;95.01
12203;BME280;6164;42.178;24.622;2022-09-09T06:14:10;99859.81;;;18.06;94.12
12203;BME280;6164;42.178;24.622;2022-09-09T06:16:37;99860.00;;;18.18;94.08
12203;BME280;6164;42.178;24.622;2022-09-09T06:19:05;99855.66;;;18.30;93.26
12203;BME280;6164;42.178;24.622;2022-09-09T06:21:32;99857.28;;;18.31;91.42
12203;BME280;6164;42.178;24.622;2022-09-09T06:24:02;99861.00;;;18.30;91.43
12203;BME280;6164;42.178;24.622;2022-09-09T06:26:29;99855.41;;;18.38;91.11
12203;BME280;6164;42.178;24.622;2022-09-09T06:28:57;99866.28;;;18.50;91.95
12203;BME280;6164;42.178;24.622;2022-09-09T06:31:24;99868.06;;;18.62;90.90
12203;BME280;6164;42.178;24.622;2022-09-09T06:33:51;99863.78;;;18.61;89.15
12203;BME280;6164;42.178;24.622;2022-09-09T06:36:20;99875.22;;;18.68;88.49
12203;BME280;6164;42.178;24.622;2022-09-09T06:38:47;99871.28;;;18.77;87.84
12203;BME280;6164;42.178;24.622;2022-09-09T06:41:14;99868.31;;;18.92;86.32
12203;BME280;6164;42.178;24.622;2022-09-09T06:43:42;99862.31;;;18.96;84.18
12203;BME280;6164;42.178;24.622;2022-09-09T06:46:09;99864.16;;;19.02;84.15
12203;BME280;6164;42.178;24.622;2022-09-09T06:48:36;99866.13;;;19.13;82.29
12203;BME280;6164;42.178;24.622;2022-09-09T06:51:03;99862.97;;;19.23;82.76
12203;BME280;6164;42.178;24.622;2022-09-09T06:53:32;99863.00;;;19.47;82.64
12203;BME280;6164;42.178;24.622;2022-09-09T06:55:59;99861.25;;;19.59;79.03
12203;BME280;6164;42.178;24.622;2022-09-09T06:58:26;99858.84;;;19.76;78.37
12203;BME280;6164;42.178;24.622;2022-09-09T07:00:53;99854.16;;;19.90;78.09
12203;BME280;6164;42.178;24.622;2022-09-09T07:03:20;99856.03;;;20.07;75.54
12203;BME280;6164;42.178;24.622;2022-09-09T07:05:53;99858.38;;;20.22;74.23
12203;BME280;6164;42.178;24.622;2022-09-09T07:08:20;99863.00;;;20.33;73.06
12203;BME280;6164;42.178;24.622;2022-09-09T07:10:48;99866.91;;;20.48;72.56
12203;BME280;6164;42.178;24.622;2022-09-09T07:13:14;99870.16;;;20.68;71.04
12203;BME280;6164;42.178;24.622;2022-09-09T07:15:41;99872.16;;;20.73;70.04
12203;BME280;6164;42.178;24.622;2022-09-09T07:18:07;99862.91;;;20.87;70.37
12203;BME280;6164;42.178;24.622;2022-09-09T07:20:35;99867.72;;;20.97;69.25
12203;BME280;6164;42.178;24.622;2022-09-09T07:23:01;99862.19;;;21.10;68.63
12203;BME280;6164;42.178;24.622;2022-09-09T07:25:28;99869.56;;;21.26;67.40
12203;BME280;6164;42.178;24.622;2022-09-09T07:27:56;99868.31;;;21.40;67.17
12203;BME280;6164;42.178;24.622;2022-09-09T07:30:23;99862.25;;;21.56;66.98
12203;BME280;6164;42.178;24.622;2022-09-09T07:32:50;99868.72;;;21.78;66.39
12203;BME280;6164;42.178;24.622;2022-09-09T07:35:17;99856.69;;;21.92;65.47
12203;BME280;6164;42.178;24.622;2022-09-09T07:37:43;99860.06;;;22.10;64.98
12203;BME280;6164;42.178;24.622;2022-09-09T07:40:10;99860.84;;;22.23;63.87
12203;BME280;6164;42.178;24.622;2022-09-09T07:42:36;99860.38;;;22.26;62.32
12203;BME280;6164;42.178;24.622;2022-09-09T07:45:05;99854.44;;;22.24;62.18
12203;BME280;6164;42.178;24.622;2022-09-09T07:47:31;99854.06;;;22.32;61.69
12203;BME280;6164;42.178;24.622;2022-09-09T07:49:58;99846.53;;;22.45;62.24
12203;BME280;6164;42.178;24.622;2022-09-09T07:52:25;99843.44;;;22.65;60.26
12203;BME280;6164;42.178;24.622;2022-09-09T07:54:51;99844.78;;;22.79;59.74
12203;BME280;6164;42.178;24.622;2022-09-09T07:57:18;99840.47;;;22.78;59.06
12203;BME280;6164;42.178;24.622;2022-09-09T07:59:44;99834.59;;;22.81;58.99
12203;BME280;6164;42.178;24.622;2022-09-09T08:02:13;99831.75;;;22.87;58.68
12203;BME280;6164;42.178;24.622;2022-09-09T08:04:39;99839.28;;;23.02;58.71
12203;BME280;6164;42.178;24.622;2022-09-09T08:07:06;99835.72;;;23.13;59.06
12203;BME280;6164;42.178;24.622;2022-09-09T08:09:32;99843.94;;;23.23;58.71
12203;BME280;6164;42.178;24.622;2022-09-09T08:11:58;99842.38;;;23.38;59.18
12203;BME280;6164;42.178;24.622;2022-09-09T08:14:26;99845.31;;;23.54;59.56
12203;BME280;6164;42.178;24.622;2022-09-09T08:16:53;99838.75;;;23.66;57.15
12203;BME280;6164;42.178;24.622;2022-09-09T08:19:21;99830.00;;;23.76;56.62
12203;BME280;6164;42.178;24.622;2022-09-09T08:21:47;99828.84;;;23.88;57.63
12203;BME280;6164;42.178;24.622;2022-09-09T08:24:15;99826.38;;;24.03;57.95
12203;BME280;6164;42.178;24.622;2022-09-09T08:26:42;99823.00;;;24.13;57.79
12203;BME280;6164;42.178;24.622;2022-09-09T08:29:09;99815.28;;;24.21;55.95
12203;BME280;6164;42.178;24.622;2022-09-09T08:31:37;99826.75;;;24.33;55.46
12203;BME280;6164;42.178;24.622;2022-09-09T08:34:04;99819.59;;;24.44;56.17
12203;BME280;6164;42.178;24.622;2022-09-09T08:36:33;99826.16;;;24.53;54.24
12203;BME280;6164;42.178;24.622;2022-09-09T08:38:59;99815.56;;;24.68;55.16
12203;BME280;6164;42.178;24.622;2022-09-09T08:44:09;99822.81;;;24.89;53.70
12203;BME280;6164;42.178;24.622;2022-09-09T08:46:39;99815.47;;;24.85;52.33
12203;BME280;6164;42.178;24.622;2022-09-09T08:49:13;99810.38;;;24.88;53.02
12203;BME280;6164;42.178;24.622;2022-09-09T08:51:46;99820.19;;;24.99;53.53
12203;BME280;6164;42.178;24.622;2022-09-09T08:54:17;99820.34;;;24.88;51.88
12203;BME280;6164;42.178;24.622;2022-09-09T08:56:44;99810.38;;;24.88;51.55
12203;BME280;6164;42.178;24.622;2022-09-09T08:59:11;99809.59;;;24.93;52.58
12203;BME280;6164;42.178;24.622;2022-09-09T09:01:44;99806.47;;;25.01;52.33
12203;BME280;6164;42.178;24.622;2022-09-09T09:04:22;99807.22;;;24.96;51.37
12203;BME280;6164;42.178;24.622;2022-09-09T09:06:58;99795.31;;;24.92;52.88
12203;BME280;6164;42.178;24.622;2022-09-09T09:09:31;99783.28;;;25.10;52.84
12203;BME280;6164;42.178;24.622;2022-09-09T09:12:06;99779.63;;;25.26;53.14
12203;BME280;6164;42.178;24.622;2022-09-09T09:14:34;99790.53;;;25.36;51.59
12203;BME280;6164;42.178;24.622;2022-09-09T09:17:03;99787.41;;;25.49;52.44
12203;BME280;6164;42.178;24.622;2022-09-09T09:19:31;99775.28;;;25.56;51.39
12203;BME280;6164;42.178;24.622;2022-09-09T09:22:01;99778.81;;;25.62;50.79
12203;BME280;6164;42.178;24.622;2022-09-09T09:24:34;99771.34;;;25.74;51.48
12203;BME280;6164;42.178;24.622;2022-09-09T09:27:08;99774.31;;;25.72;50.05
12203;BME280;6164;42.178;24.622;2022-09-09T09:29:38;99771.97;;;25.91;51.17
12203;BME280;6164;42.178;24.622;2022-09-09T09:32:07;99768.53;;;26.06;50.55
12203;BME280;6164;42.178;24.622;2022-09-09T09:34:38;99762.63;;;26.19;49.88
12203;BME280;6164;42.178;24.622;2022-09-09T09:37:11;99765.38;;;26.29;49.76
12203;BME280;6164;42.178;24.622;2022-09-09T09:39:38;99762.16;;;26.37;48.12
12203;BME280;6164;42.178;24.622;2022-09-09T09:42:07;99764.31;;;26.40;48.68
12203;BME280;6164;42.178;24.622;2022-09-09T09:44:36;99751.38;;;26.52;50.18
12203;BME280;6164;42.178;24.622;2022-09-09T09:47:07;99760.28;;;26.57;48.10
12203;BME280;6164;42.178;24.622;2022-09-09T09:49:33;99748.13;;;26.65;48.75
12203;BME280;6164;42.178;24.622;2022-09-09T09:52:00;99742.69;;;26.55;48.13
12203;BME280;6164;42.178;24.622;2022-09-09T09:54:28;99742.44;;;26.61;48.08
12203;BME280;6164;42.178;24.622;2022-09-09T09:56:56;99744.09;;;26.67;48.74
12203;BME280;6164;42.178;24.622;2022-09-09T09:59:31;99743.53;;;26.55;47.45
12203;BME280;6164;42.178;24.622;2022-09-09T10:02:05;99721.09;;;26.70;49.23
12203;BME280;6164;42.178;24.622;2022-09-09T10:04:33;99703.47;;;26.87;49.37
12203;BME280;6164;42.178;24.622;2022-09-09T10:07:09;99722.44;;;26.97;48.56
12203;BME280;6164;42.178;24.622;2022-09-09T10:09:37;99715.97;;;26.98;47.18
12203;BME280;6164;42.178;24.622;2022-09-09T10:12:06;99715.91;;;27.08;48.26
12203;BME280;6164;42.178;24.622;2022-09-09T10:14:40;99726.19;;;27.21;47.83
12203;BME280;6164;42.178;24.622;2022-09-09T10:17:14;99734.13;;;27.28;46.52
12203;BME280;6164;42.178;24.622;2022-09-09T10:19:46;99738.97;;;27.31;45.82
12203;BME280;6164;42.178;24.622;2022-09-09T10:22:24;99724.59;;;27.36;47.14
12203;BME280;6164;42.178;24.622;2022-09-09T10:27:59;99724.03;;;27.49;46.63
12203;BME280;6164;42.178;24.622;2022-09-09T10:30:34;99731.13;;;27.40;45.26
12203;BME280;6164;42.178;24.622;2022-09-09T10:33:05;99729.44;;;27.49;45.59
12203;BME280;6164;42.178;24.622;2022-09-09T10:35:35;99720.19;;;27.60;46.65
12203;BME280;6164;42.178;24.622;2022-09-09T10:38:11;99712.56;;;27.72;45.59
12203;BME280;6164;42.178;24.622;2022-09-09T10:40:42;99705.00;;;27.69;45.16
12203;BME280;6164;42.178;24.622;2022-09-09T10:43:15;99704.41;;;27.77;45.28
12203;BME280;6164;42.178;24.622;2022-09-09T10:45:49;99708.69;;;27.93;45.50
12203;BME280;6164;42.178;24.622;2022-09-09T10:48:26;99718.22;;;27.85;44.50
12203;BME280;6164;42.178;24.622;2022-09-09T10:50:58;99708.69;;;27.88;45.83
12203;BME280;6164;42.178;24.622;2022-09-09T10:53:32;99716.81;;;28.03;44.96
12203;BME280;6164;42.178;24.622;2022-09-09T10:56:01;99711.28;;;28.23;44.63
12203;BME280;6164;42.178;24.622;2022-09-09T10:58:33;99711.19;;;28.38;44.16
12203;BME280;6164;42.178;24.622;2022-09-09T11:01:06;99722.31;;;28.41;43.42
12203;BME280;6164;42.178;24.622;2022-09-09T11:03:36;99716.66;;;28.33;43.39
12203;BME280;6164;42.178;24.622;2022-09-09T11:06:11;99709.50;;;28.42;43.80
12203;BME280;6164;42.178;24.622;2022-09-09T11:08:39;99705.44;;;28.44;43.36
12203;BME280;6164;42.178;24.622;2022-09-09T11:11:06;99696.41;;;28.59;43.15
12203;BME280;6164;42.178;24.622;2022-09-09T11:13:39;99684.84;;;28.77;43.30
12203;BME280;6164;42.178;24.622;2022-09-09T11:16:15;99692.03;;;28.92;42.98
12203;BME280;6164;42.178;24.622;2022-09-09T11:18:43;99693.06;;;29.01;42.01
12203;BME280;6164;42.178;24.622;2022-09-09T11:21:14;99679.72;;;29.04;43.10
12203;BME280;6164;42.178;24.622;2022-09-09T11:23:43;99679.41;;;29.11;43.29
12203;BME280;6164;42.178;24.622;2022-09-09T11:26:15;99674.94;;;29.20;42.72
12203;BME280;6164;42.178;24.622;2022-09-09T11:28:50;99678.97;;;29.27;42.08
12203;BME280;6164;42.178;24.622;2022-09-09T11:31:30;99672.38;;;29.33;41.38
12203;BME280;6164;42.178;24.622;2022-09-09T11:34:13;99661.78;;;29.55;42.86
12203;BME280;6164;42.178;24.622;2022-09-09T11:36:48;99691.84;;;29.64;40.76
12203;BME280;6164;42.178;24.622;2022-09-09T11:39:24;99677.38;;;29.74;41.24
12203;BME280;6164;42.178;24.622;2022-09-09T11:42:05;99669.22;;;29.74;41.56
12203;BME280;6164;42.178;24.622;2022-09-09T11:44:33;99671.50;;;29.85;41.40
12203;BME280;6164;42.178;24.622;2022-09-09T11:47:02;99668.78;;;30.04;41.35
12203;BME280;6164;42.178;24.622;2022-09-09T11:49:30;99662.97;;;30.10;41.44
12203;BME280;6164;42.178;24.622;2022-09-09T11:52:10;99659.09;;;30.16;40.69
12203;BME280;6164;42.178;24.622;2022-09-09T11:54:44;99658.28;;;30.16;40.17
12203;BME280;6164;42.178;24.622;2022-09-09T11:57:21;99658.88;;;30.13;40.53
12203;BME280;6164;42.178;24.622;2022-09-09T11:59:51;99639.53;;;30.33;41.67
12203;BME280;6164;42.178;24.622;2022-09-09T12:02:19;99643.41;;;30.45;40.29
12203;BME280;6164;42.178;24.622;2022-09-09T12:04:49;99638.81;;;30.59;40.54
12203;BME280;6164;42.178;24.622;2022-09-09T12:07:23;99645.75;;;30.52;39.82
12203;BME280;6164;42.178;24.622;2022-09-09T12:09:52;99628.69;;;30.46;41.14
12203;BME280;6164;42.178;24.622;2022-09-09T12:12:22;99641.38;;;30.37;40.07
12203;BME280;6164;42.178;24.622;2022-09-09T12:14:59;99622.22;;;30.42;41.05
12203;BME280;6164;42.178;24.622;2022-09-09T12:17:29;99623.22;;;30.46;40.76
12203;BME280;6164;42.178;24.622;2022-09-09T12:20:00;99627.13;;;30.59;40.53
12203;BME280;6164;42.178;24.622;2022-09-09T12:22:31;99636.00;;;30.64;39.52
12203;BME280;6164;42.178;24.622;2022-09-09T12:25:01;99630.91;;;30.76;39.39
12203;BME280;6164;42.178;24.622;2022-09-09T12:27:33;99616.91;;;30.51;39.33
12203;BME280;6164;42.178;24.622;2022-09-09T12:30:04;99626.78;;;30.47;39.68
12203;BME280;6164;42.178;24.622;2022-09-09T12:32:35;99621.84;;;30.49;39.81
12203;BME280;6164;42.178;24.622;2022-09-09T12:35:03;99625.38;;;30.49;39.77
12203;BME280;6164;42.178;24.622;2022-09-09T12:37:33;99608.13;;;30.54;41.13
12203;BME280;6164;42.178;24.622;2022-09-09T12:40:03;99614.09;;;30.56;39.28
12203;BME280;6164;42.178;24.622;2022-09-09T12:42:30;99617.31;;;30.58;39.81
12203;BME280;6164;42.178;24.622;2022-09-09T12:44:59;99613.19;;;30.60;39.76
12203;BME280;6164;42.178;24.622;2022-09-09T12:47:29;99617.44;;;30.66;39.15
12203;BME280;6164;42.178;24.622;2022-09-09T12:49:58;99615.75;;;30.70;38.17
12203;BME280;6164;42.178;24.622;2022-09-09T12:52:26;99615.22;;;30.87;38.64
12203;BME280;6164;42.178;24.622;2022-09-09T12:54:55;99610.78;;;31.05;38.22
12203;BME280;6164;42.178;24.622;2022-09-09T12:57:22;99586.38;;;31.27;39.19
12203;BME280;6164;42.178;24.622;2022-09-09T12:59:50;99596.50;;;31.40;38.86
12203;BME280;6164;42.178;24.622;2022-09-09T13:02:19;99594.94;;;31.61;38.23
12203;BME280;6164;42.178;24.622;2022-09-09T13:04:47;99614.78;;;31.53;37.48
12203;BME280;6164;42.178;24.622;2022-09-09T13:07:15;99600.41;;;31.47;38.19
12203;BME280;6164;42.178;24.622;2022-09-09T13:09:42;99599.06;;;31.58;37.44
12203;BME280;6164;42.178;24.622;2022-09-09T13:12:12;99597.88;;;31.64;37.61
12203;BME280;6164;42.178;24.622;2022-09-09T13:14:39;99608.50;;;31.39;36.87
12203;BME280;6164;42.178;24.622;2022-09-09T13:17:15;99611.22;;;31.12;36.91